createdAt,value
2022-09-02T00:02:08.752Z,100.00
2022-09-02T00:04:36.627Z,100.00
2022-09-02T00:07:04.346Z,100.00
2022-09-02T00:09:32.067Z,100.00
2022-09-02T00:11:59.777Z,100.00
2022-09-02T00:18:36.063Z,100.00
2022-09-02T00:21:04.516Z,100.00
2022-09-02T00:23:32.315Z,100.00
2022-09-02T00:26:00.144Z,100.00
2022-09-02T00:28:27.805Z,100.00
2022-09-02T00:30:55.515Z,100.00
2022-09-02T00:33:23.750Z,100.00
2022-09-02T00:35:52.928Z,100.00
2022-09-02T00:38:20.602Z,100.00
2022-09-02T00:40:50.134Z,100.00
2022-09-02T00:43:25.188Z,100.00
2022-09-02T00:45:54.272Z,100.00
2022-09-02T00:48:22.065Z,99.95
2022-09-02T00:50:50.983Z,99.55
2022-09-02T00:53:20.912Z,99.21
2022-09-02T00:55:51.847Z,100.00
2022-09-02T00:58:23.336Z,99.60
2022-09-02T01:00:56.608Z,97.84
2022-09-02T01:03:28.228Z,98.48
2022-09-02T01:05:58.045Z,98.77
2022-09-02T01:08:30.068Z,97.58
2022-09-02T01:10:58.131Z,100.00
2022-09-02T01:13:28.854Z,100.00
2022-09-02T01:16:03.266Z,97.28
2022-09-02T01:18:32.071Z,96.92
2022-09-02T01:21:00.846Z,98.32
2022-09-02T01:23:34.957Z,96.54
2022-09-02T01:26:03.723Z,96.26
2022-09-02T01:28:33.420Z,96.11
2022-09-02T01:31:01.708Z,95.13
2022-09-02T01:33:30.764Z,96.86
2022-09-02T01:35:59.697Z,97.67
2022-09-02T01:38:27.975Z,95.62
2022-09-02T01:40:58.090Z,96.60
2022-09-02T01:43:27.879Z,97.06
2022-09-02T01:45:58.710Z,96.54
2022-09-02T01:48:29.622Z,93.96
2022-09-02T01:50:59.420Z,94.94
2022-09-02T01:53:28.076Z,94.61
2022-09-02T01:55:57.487Z,94.54
2022-09-02T01:58:25.251Z,94.88
2022-09-02T02:00:53.571Z,93.49
2022-09-02T02:03:21.586Z,93.15
2022-09-02T02:05:50.440Z,92.58
2022-09-02T02:08:20.671Z,94.51
2022-09-02T02:10:48.564Z,95.27
2022-09-02T02:13:17.751Z,93.22
2022-09-02T02:15:45.882Z,93.54
2022-09-02T02:18:13.715Z,96.26
2022-09-02T02:20:42.875Z,94.11
2022-09-02T02:23:12.845Z,95.25
2022-09-02T02:25:41.725Z,93.88
2022-09-02T02:28:09.379Z,94.03
2022-09-02T02:30:39.474Z,93.48
2022-09-02T02:33:10.315Z,94.34
2022-09-02T02:35:38.206Z,94.39
2022-09-02T02:38:06.248Z,93.66
2022-09-02T02:40:34.022Z,92.84
2022-09-02T02:43:01.937Z,94.97
2022-09-02T02:45:30.329Z,94.61
2022-09-02T02:47:59.747Z,94.50
2022-09-02T02:50:27.855Z,93.61
2022-09-02T02:52:56.350Z,93.12
2022-09-02T02:55:26.492Z,93.65
2022-09-02T02:57:55.018Z,92.69
2022-09-02T03:00:25.536Z,93.80
2022-09-02T03:02:57.015Z,93.17
2022-09-02T03:05:27.120Z,93.57
2022-09-02T03:07:55.346Z,91.71
2022-09-02T03:10:24.168Z,91.42
2022-09-02T03:12:52.439Z,92.54
2022-09-02T03:15:22.119Z,93.07
2022-09-02T03:17:53.118Z,90.54
2022-09-02T03:20:22.451Z,90.45
2022-09-02T03:22:57.511Z,90.55
2022-09-02T03:25:26.580Z,90.91
2022-09-02T03:27:57.757Z,91.33
2022-09-02T03:30:28.010Z,90.80
2022-09-02T03:33:03.745Z,89.34
2022-09-02T03:35:34.550Z,91.52
2022-09-02T03:38:03.646Z,89.80
2022-09-02T03:40:31.694Z,88.31
2022-09-02T03:43:00.600Z,88.54
2022-09-02T03:45:30.809Z,88.57
2022-09-02T03:48:01.065Z,88.17
2022-09-02T03:50:34.720Z,88.36
2022-09-02T03:53:05.200Z,87.80
2022-09-02T03:55:33.440Z,87.06
2022-09-02T03:58:06.548Z,87.78
2022-09-02T04:00:38.367Z,86.87
2022-09-02T04:03:06.769Z,88.01
2022-09-02T04:05:35.180Z,86.85
2022-09-02T04:08:03.135Z,86.99
2022-09-02T04:10:32.673Z,86.11
2022-09-02T04:13:00.400Z,87.34
2022-09-02T04:15:28.157Z,85.69
2022-09-02T04:17:57.046Z,86.42
2022-09-02T04:20:25.129Z,85.96
2022-09-02T04:22:52.858Z,86.43
2022-09-02T04:25:27.603Z,86.04
2022-09-02T04:27:57.918Z,85.95
2022-09-02T04:30:25.917Z,84.73
2022-09-02T04:32:54.436Z,84.82
2022-09-02T04:35:22.254Z,83.66
2022-09-02T04:37:50.830Z,84.81
2022-09-02T04:40:19.242Z,84.18
2022-09-02T04:42:48.522Z,84.94
2022-09-02T04:45:18.355Z,85.19
2022-09-02T04:47:47.888Z,85.21
2022-09-02T04:50:17.646Z,84.26
2022-09-02T04:52:59.951Z,83.99
2022-09-02T04:55:28.907Z,82.87
2022-09-02T04:57:58.849Z,82.29
2022-09-02T05:00:30.679Z,83.83
2022-09-02T05:02:59.990Z,83.00
2022-09-02T05:05:33.849Z,84.24
2022-09-02T05:08:04.794Z,83.30
2022-09-02T05:10:35.193Z,81.64
2022-09-02T05:13:06.566Z,83.86
2022-09-02T05:15:43.508Z,82.87
2022-09-02T05:18:12.344Z,82.98
2022-09-02T05:20:43.599Z,82.86
2022-09-02T05:23:14.332Z,83.50
2022-09-02T05:25:45.858Z,83.33
2022-09-02T05:28:13.889Z,82.05
2022-09-02T05:30:44.697Z,82.59
2022-09-02T05:33:15.112Z,82.48
2022-09-02T05:35:49.785Z,82.81
2022-09-02T05:38:18.510Z,82.96
2022-09-02T05:40:48.499Z,82.21
2022-09-02T05:43:19.065Z,82.48
2022-09-02T05:45:50.339Z,83.75
2022-09-02T05:48:36.829Z,82.58
2022-09-02T05:51:08.408Z,81.81
2022-09-02T05:53:39.357Z,82.43
2022-09-02T05:56:09.202Z,80.17
2022-09-02T05:58:37.950Z,81.31
2022-09-02T06:01:10.673Z,79.61
2022-09-02T06:03:40.290Z,80.30
2022-09-02T06:06:13.901Z,79.90
2022-09-02T06:08:46.289Z,76.61
2022-09-02T06:11:16.907Z,76.49
2022-09-02T06:13:48.670Z,76.57
2022-09-02T06:16:22.386Z,75.82
2022-09-02T06:18:51.764Z,77.14
2022-09-02T06:21:20.830Z,73.56
2022-09-02T06:23:55.029Z,72.04
2022-09-02T06:26:23.885Z,71.35
2022-09-02T06:28:53.294Z,69.23
2022-09-02T06:31:24.685Z,70.21
2022-09-02T06:33:58.307Z,67.98
2022-09-02T06:36:30.936Z,67.36
2022-09-02T06:39:01.566Z,65.85
2022-09-02T06:41:35.467Z,65.65
2022-09-02T06:44:09.976Z,64.59
2022-09-02T06:46:43.602Z,64.05
2022-09-02T06:49:17.330Z,61.52
2022-09-02T06:51:51.591Z,61.33
2022-09-02T06:54:22.178Z,61.16
2022-09-02T06:56:56.981Z,61.01
2022-09-02T06:59:28.529Z,60.22
2022-09-02T07:02:03.869Z,60.57
2022-09-02T07:04:53.225Z,60.96
2022-09-02T07:07:27.523Z,58.98
2022-09-02T07:10:06.443Z,59.05
2022-09-02T07:12:38.938Z,59.36
2022-09-02T07:15:12.778Z,58.83
2022-09-02T07:17:49.546Z,57.67
2022-09-02T07:20:28.441Z,58.38
2022-09-02T07:23:02.833Z,56.80
2022-09-02T07:25:41.142Z,56.23
2022-09-02T07:28:13.709Z,56.09
2022-09-02T07:30:46.030Z,55.16
2022-09-02T07:33:20.278Z,55.01
2022-09-02T07:35:49.875Z,54.50
2022-09-02T07:38:19.159Z,53.49
2022-09-02T07:40:48.971Z,54.15
2022-09-02T07:43:18.471Z,52.81
2022-09-02T07:45:48.887Z,52.91
2022-09-02T07:48:19.513Z,52.20
2022-09-02T07:50:50.863Z,52.15
2022-09-02T07:53:20.955Z,51.71
2022-09-02T07:55:50.525Z,50.93
2022-09-02T07:58:22.290Z,51.50
2022-09-02T08:00:54.754Z,50.58
2022-09-02T08:03:25.939Z,50.23
2022-09-02T08:05:59.719Z,49.32
2022-09-02T08:08:28.879Z,49.27
2022-09-02T08:10:57.498Z,48.18
2022-09-02T08:13:28.101Z,49.12
2022-09-02T08:15:56.703Z,48.65
2022-09-02T08:18:27.587Z,48.07
2022-09-02T08:20:56.170Z,47.10
2022-09-02T08:23:37.021Z,47.27
2022-09-02T08:26:07.229Z,46.25
2022-09-02T08:28:35.080Z,46.44
2022-09-02T08:31:06.328Z,45.72
2022-09-02T08:33:39.194Z,45.56
2022-09-02T08:36:11.698Z,45.33
2022-09-02T08:38:39.601Z,44.98
2022-09-02T08:41:14.859Z,45.66
2022-09-02T08:43:46.149Z,45.07
2022-09-02T08:46:18.365Z,44.34
2022-09-02T08:48:52.821Z,44.28
2022-09-02T08:51:25.029Z,44.04
2022-09-02T08:54:03.550Z,42.86
2022-09-02T08:56:33.386Z,42.62
2022-09-02T08:59:03.956Z,43.11
2022-09-02T09:01:44.298Z,43.47
2022-09-02T09:04:20.134Z,41.39
2022-09-02T09:07:05.001Z,41.55
2022-09-02T09:09:45.785Z,41.99
2022-09-02T09:12:19.846Z,41.08
2022-09-02T09:14:55.865Z,39.94
2022-09-02T09:17:31.734Z,39.94
2022-09-02T09:20:12.503Z,40.23
2022-09-02T09:22:42.819Z,39.25
2022-09-02T09:25:15.364Z,38.79
2022-09-02T09:27:46.386Z,39.22
2022-09-02T09:30:16.261Z,39.55
2022-09-02T09:32:48.839Z,38.64
2022-09-02T09:35:19.771Z,38.47
2022-09-02T09:37:50.034Z,39.10
2022-09-02T09:40:32.166Z,38.28
2022-09-02T09:43:15.608Z,37.82
2022-09-02T09:45:46.991Z,37.67
2022-09-02T09:48:23.934Z,37.51
2022-09-02T09:51:17.511Z,36.64
2022-09-02T09:53:46.419Z,37.09
2022-09-02T09:56:37.350Z,37.61
2022-09-02T09:59:29.921Z,36.06
2022-09-02T10:01:59.486Z,36.18
2022-09-02T10:04:46.457Z,36.41
2022-09-02T10:07:35.820Z,36.38
2022-09-02T10:10:17.520Z,36.55
2022-09-02T10:12:46.805Z,35.80
2022-09-02T10:15:25.450Z,35.45
2022-09-02T10:18:01.820Z,35.57
2022-09-02T10:21:04.930Z,35.44
2022-09-02T10:23:52.677Z,34.29
2022-09-02T10:26:27.120Z,35.23
2022-09-02T10:29:23.418Z,35.26
2022-09-02T10:32:08.676Z,35.21
2022-09-02T10:34:47.255Z,34.30
2022-09-02T10:37:20.951Z,35.14
2022-09-02T10:40:10.672Z,34.94
2022-09-02T10:42:48.523Z,33.49
2022-09-02T10:45:25.359Z,33.85
2022-09-02T10:48:08.422Z,33.86
2022-09-02T10:50:43.757Z,34.90
2022-09-02T10:53:27.308Z,34.72
2022-09-02T10:56:03.762Z,35.36
2022-09-02T10:58:42.726Z,35.58
2022-09-02T11:01:20.426Z,33.60
2022-09-02T11:04:02.565Z,33.22
2022-09-02T11:06:59.121Z,33.67
2022-09-02T11:09:37.365Z,32.79
2022-09-02T11:12:16.170Z,34.23
2022-09-02T11:14:56.182Z,33.53
2022-09-02T11:17:36.239Z,32.86
2022-09-02T11:20:13.950Z,32.00
2022-09-02T11:22:59.971Z,33.46
2022-09-02T11:25:35.669Z,32.47
2022-09-02T11:28:23.326Z,33.08
2022-09-02T11:30:56.843Z,33.38
2022-09-02T11:33:33.082Z,31.09
2022-09-02T11:36:02.643Z,33.02
2022-09-02T11:38:36.830Z,32.36
2022-09-02T11:41:36.927Z,32.13
2022-09-02T11:44:29.388Z,31.52
2022-09-02T11:47:10.031Z,32.32
2022-09-02T11:50:04.334Z,32.29
2022-09-02T11:52:52.317Z,33.52
2022-09-02T11:55:25.191Z,32.82
2022-09-02T11:57:57.633Z,30.82
2022-09-02T12:00:32.561Z,32.06
2022-09-02T12:03:37.811Z,32.31
2022-09-02T12:06:09.622Z,32.45
2022-09-02T12:09:11.079Z,32.50
2022-09-02T12:11:50.565Z,31.26
2022-09-02T12:15:05.924Z,30.94
2022-09-02T12:17:46.234Z,31.82
2022-09-02T12:20:51.618Z,31.06
2022-09-02T12:23:56.756Z,32.16
2022-09-02T12:26:25.247Z,31.59
2022-09-02T12:29:12.441Z,30.39
2022-09-02T12:31:47.031Z,31.76
2022-09-02T12:34:53.471Z,30.85
2022-09-02T12:37:51.849Z,30.61
2022-09-02T12:40:32.574Z,29.34
2022-09-02T12:43:07.233Z,30.42
2022-09-02T12:45:45.276Z,31.39
2022-09-02T12:48:24.966Z,30.85
2022-09-02T12:51:08.716Z,31.63
2022-09-02T12:53:43.036Z,30.39
2022-09-02T12:56:20.991Z,30.31
2022-09-02T12:58:52.605Z,30.89
2022-09-02T13:01:31.034Z,30.05
2022-09-02T13:04:27.733Z,30.57
2022-09-02T13:07:41.054Z,30.71
2022-09-02T13:10:33.651Z,29.94
2022-09-02T13:13:26.613Z,30.41
2022-09-02T13:16:18.790Z,29.62
2022-09-02T13:19:19.439Z,29.68
2022-09-02T13:22:17.523Z,29.60
2022-09-02T13:25:25.470Z,30.91
2022-09-02T13:28:37.136Z,29.67
2022-09-02T13:31:14.451Z,28.62
2022-09-02T13:33:43.453Z,29.26
2022-09-02T13:36:26.210Z,31.24
2022-09-02T13:38:56.916Z,30.73
2022-09-02T13:41:32.734Z,28.80
2022-09-02T13:44:11.486Z,28.41
2022-09-02T13:46:45.845Z,29.14
2022-09-02T13:49:25.143Z,29.29
2022-09-02T13:51:58.545Z,29.73
2022-09-02T13:54:35.521Z,29.33
2022-09-02T13:57:08.485Z,29.00
2022-09-02T13:59:47.400Z,29.01
2022-09-02T14:02:25.330Z,28.76
2022-09-02T14:04:58.731Z,28.21
2022-09-02T14:07:33.268Z,29.12
2022-09-02T14:10:08.763Z,28.46
2022-09-02T14:12:38.834Z,28.39
2022-09-02T14:15:11.345Z,29.37
2022-09-02T14:17:39.845Z,28.48
2022-09-02T14:20:17.706Z,29.22
2022-09-02T14:22:55.786Z,29.02
2022-09-02T14:25:27.570Z,28.94
2022-09-02T14:28:02.065Z,29.45
2022-09-02T14:30:34.573Z,28.50
2022-09-02T14:33:20.145Z,29.44
2022-09-02T14:36:01.487Z,29.13
2022-09-02T14:38:36.704Z,29.81
2022-09-02T14:41:12.742Z,30.02
2022-09-02T14:43:47.339Z,29.03
2022-09-02T14:46:25.362Z,29.12
2022-09-02T14:49:01.226Z,28.83
2022-09-02T14:51:35.406Z,29.52
2022-09-02T14:54:03.422Z,29.71
2022-09-02T14:56:50.794Z,29.65
2022-09-02T14:59:19.018Z,29.62
2022-09-02T15:01:51.503Z,29.74
2022-09-02T15:04:20.256Z,29.49
2022-09-02T15:06:48.727Z,29.47
2022-09-02T15:09:17.405Z,29.32
2022-09-02T15:11:49.062Z,30.48
2022-09-02T15:14:16.843Z,29.20
2022-09-02T15:16:44.503Z,29.58
2022-09-02T15:19:13.593Z,29.52
2022-09-02T15:21:41.454Z,30.04
2022-09-02T15:24:09.136Z,30.20
2022-09-02T15:26:36.862Z,30.68
2022-09-02T15:29:04.943Z,30.95
2022-09-02T15:31:32.851Z,30.50
2022-09-02T15:34:00.876Z,29.64
2022-09-02T15:36:31.295Z,30.30
2022-09-02T15:39:00.549Z,30.27
2022-09-02T15:41:31.397Z,30.10
2022-09-02T15:44:00.549Z,30.60
2022-09-02T15:46:36.945Z,30.48
2022-09-02T15:49:07.226Z,30.73
2022-09-02T15:51:38.480Z,31.03
2022-09-02T15:54:08.170Z,31.13
2022-09-02T15:56:37.434Z,31.15
2022-09-02T15:59:10.142Z,30.43
2022-09-02T16:01:39.967Z,30.15
2022-09-02T16:04:08.622Z,29.87
2022-09-02T16:06:39.925Z,30.45
2022-09-02T16:09:08.347Z,30.84
2022-09-02T16:11:38.482Z,30.57
2022-09-02T16:14:06.150Z,30.38
2022-09-02T16:16:35.809Z,30.48
2022-09-02T16:19:05.730Z,31.09
2022-09-02T16:21:33.407Z,31.25
2022-09-02T16:24:02.645Z,31.51
2022-09-02T16:26:31.682Z,32.53
2022-09-02T16:29:01.469Z,31.75
2022-09-02T16:31:31.251Z,31.64
2022-09-02T16:34:00.748Z,31.73
2022-09-02T16:36:33.303Z,32.51
2022-09-02T16:39:03.258Z,33.05
2022-09-02T16:41:34.477Z,32.30
2022-09-02T16:44:05.075Z,32.74
2022-09-02T16:46:33.334Z,33.49
2022-09-02T16:49:01.013Z,33.24
2022-09-02T16:51:30.091Z,33.47
2022-09-02T16:53:59.604Z,33.93
2022-09-02T16:56:30.554Z,34.56
2022-09-02T16:59:02.835Z,34.00
2022-09-02T17:01:32.599Z,33.90
2022-09-02T17:04:01.290Z,33.70
2022-09-02T17:06:29.107Z,34.15
2022-09-02T17:08:57.203Z,34.17
2022-09-02T17:11:26.946Z,35.63
2022-09-02T17:13:57.416Z,33.97
2022-09-02T17:16:28.258Z,35.04
2022-09-02T17:18:56.815Z,34.92
2022-09-02T17:21:27.635Z,35.58
2022-09-02T17:23:56.007Z,36.23
2022-09-02T17:26:26.870Z,37.03
2022-09-02T17:28:57.521Z,38.11
2022-09-02T17:31:27.498Z,38.64
2022-09-02T17:33:56.983Z,39.80
2022-09-02T17:36:25.936Z,39.39
2022-09-02T17:39:16.153Z,39.58
2022-09-02T17:42:05.170Z,43.02
2022-09-02T17:44:55.959Z,43.98
2022-09-02T17:50:31.726Z,44.30
2022-09-02T17:53:19.735Z,43.68
2022-09-02T17:56:24.659Z,44.24
2022-09-02T17:59:20.389Z,46.28
2022-09-02T18:02:29.468Z,45.21
2022-09-02T18:05:24.312Z,45.34
2022-09-02T18:08:28.104Z,44.25
2022-09-02T18:11:17.653Z,44.74
2022-09-02T18:14:17.966Z,45.92
2022-09-02T18:17:20.372Z,45.24
2022-09-02T18:20:13.347Z,45.07
2022-09-02T18:23:21.053Z,45.72
2022-09-02T18:26:24.187Z,43.99
2022-09-02T18:29:24.769Z,43.80
2022-09-02T18:32:24.142Z,44.18
2022-09-02T18:35:22.625Z,45.00
2022-09-02T18:38:19.579Z,44.88
2022-09-02T18:41:19.998Z,45.57
2022-09-02T18:44:22.808Z,46.08
2022-09-02T18:47:15.466Z,46.56
2022-09-02T18:50:07.051Z,46.39
2022-09-02T18:52:59.429Z,46.45
2022-09-02T18:55:48.771Z,46.39
2022-09-02T18:58:43.553Z,47.33
2022-09-02T19:01:39.440Z,46.84
2022-09-02T19:04:29.561Z,46.43
2022-09-02T19:07:38.364Z,45.93
2022-09-02T19:10:26.384Z,45.64
2022-09-02T19:13:15.097Z,45.75
2022-09-02T19:16:05.041Z,45.11
2022-09-02T19:18:54.313Z,44.91
2022-09-02T19:21:47.300Z,45.39
2022-09-02T19:24:42.638Z,44.25
2022-09-02T19:27:34.099Z,44.31
2022-09-02T19:30:23.297Z,44.25
2022-09-02T19:33:14.620Z,44.19
2022-09-02T19:36:02.931Z,44.59
2022-09-02T19:38:51.058Z,44.20
2022-09-02T19:41:40.454Z,43.96
2022-09-02T19:44:28.572Z,44.40
2022-09-02T19:50:24.986Z,44.32
2022-09-02T19:53:19.183Z,43.97
2022-09-02T19:56:08.290Z,44.46
2022-09-02T19:58:57.899Z,43.81
2022-09-02T20:01:46.399Z,43.99
2022-09-02T20:04:34.582Z,43.99
2022-09-02T20:07:22.630Z,43.98
2022-09-02T20:10:11.760Z,44.82
2022-09-02T20:12:59.977Z,44.20
2022-09-02T20:15:49.770Z,44.20
2022-09-02T20:18:37.942Z,44.67
2022-09-02T20:21:28.495Z,44.07
2022-09-02T20:24:22.957Z,44.15
2022-09-02T20:27:21.807Z,44.29
2022-09-02T20:30:12.780Z,43.87
2022-09-02T20:33:10.449Z,44.04
2022-09-02T20:36:12.400Z,44.28
2022-09-02T20:39:15.100Z,44.26
2022-09-02T20:42:20.323Z,43.74
2022-09-02T20:45:14.634Z,44.03
2022-09-02T20:48:16.016Z,43.74
2022-09-02T20:51:11.298Z,44.02
2022-09-02T20:54:15.494Z,44.17
2022-09-02T20:57:17.828Z,44.07
2022-09-02T21:00:10.444Z,44.26
2022-09-02T21:03:03.192Z,43.94
2022-09-02T21:05:58.101Z,44.09
2022-09-02T21:09:00.379Z,43.85
2022-09-02T21:11:55.981Z,43.77
2022-09-02T21:14:47.593Z,44.37
2022-09-02T21:17:46.428Z,44.35
2022-09-02T21:20:44.699Z,44.67
2022-09-02T21:23:39.646Z,44.40
2022-09-02T21:26:39.837Z,44.23
2022-09-02T21:29:33.414Z,44.78
2022-09-02T21:32:30.083Z,44.70
2022-09-02T21:35:20.877Z,44.65
2022-09-02T21:38:13.290Z,44.39
2022-09-02T21:41:27.298Z,44.51
2022-09-02T21:44:20.345Z,44.66
2022-09-02T21:47:19.350Z,44.91
2022-09-02T21:50:12.752Z,44.74
2022-09-02T21:53:09.490Z,44.97
2022-09-02T21:56:12.007Z,44.95
2022-09-02T21:59:25.924Z,45.06
2022-09-02T22:02:21.826Z,45.53
2022-09-02T22:05:19.851Z,45.25
2022-09-02T22:08:15.542Z,45.68
2022-09-02T22:11:10.058Z,45.87
2022-09-02T22:14:01.252Z,45.52
2022-09-02T22:16:58.894Z,45.71
2022-09-02T22:19:47.096Z,45.98
2022-09-02T22:22:39.285Z,45.66
2022-09-02T22:25:27.953Z,46.10
2022-09-02T22:28:21.918Z,46.04
2022-09-02T22:31:16.052Z,46.21
2022-09-02T22:34:08.832Z,46.54
2022-09-02T22:37:01.485Z,46.50
2022-09-02T22:39:51.985Z,46.36
2022-09-02T22:42:41.576Z,46.29
2022-09-02T22:46:01.054Z,46.68
2022-09-02T22:49:14.310Z,46.89
2022-09-02T22:52:28.031Z,46.84
2022-09-02T22:55:21.416Z,46.96
2022-09-02T22:58:26.257Z,46.70
2022-09-02T23:01:20.880Z,46.79
2022-09-02T23:04:33.499Z,46.63
2022-09-02T23:07:24.161Z,46.95
2022-09-02T23:10:20.973Z,46.93
2022-09-02T23:13:14.672Z,46.99
2022-09-02T23:16:12.108Z,47.10
2022-09-02T23:19:14.158Z,46.81
2022-09-02T23:22:11.847Z,47.00
2022-09-02T23:25:16.054Z,46.78
2022-09-02T23:28:16.798Z,46.80
2022-09-02T23:31:12.732Z,46.88
2022-09-02T23:34:14.468Z,46.95
2022-09-02T23:37:12.167Z,46.58
2022-09-02T23:40:11.426Z,46.77
2022-09-02T23:42:59.702Z,46.89
2022-09-02T23:45:48.771Z,46.90
2022-09-02T23:48:45.410Z,46.49
2022-09-02T23:51:40.954Z,46.42
2022-09-02T23:54:50.496Z,46.85
2022-09-02T23:57:53.518Z,46.81
